Terminal Aerodrome Forecast
Issued by NWS

Home | Current Version | Previous Version | Text Only | Print | Product List | Glossary On
Versions: 1 2 3 4 5 6 7 8 9 10 11 12 13 14
069
FTUS45 KABQ 271727
TAFTCC
TAF
KTCC 271727Z 2718/2818 VRB06KT P6SM FEW150
     FM272000 17010KT P6SM SCT100 SCT150
     FM272200 15013KT P6SM VCTS BKN100CB
     FM280100 18008KT P6SM VCSH BKN100
     FM280500 25006KT P6SM SCT150
     FM281600 21007KT P6SM FEW100=

USA.gov is the U.S. government's official web portal to all federal, state and local government web resources and services.